createdAt,value
2019-03-28T00:02:50.940Z,60.73
2019-03-28T00:05:46.634Z,57.27
2019-03-28T00:08:42.359Z,49.75
2019-03-28T00:11:38.083Z,56.63
2019-03-28T00:14:33.397Z,46.15
2019-03-28T00:17:29.048Z,51.60
2019-03-28T00:20:25.558Z,49.70
2019-03-28T00:23:29.776Z,49.20
2019-03-28T00:26:30.330Z,45.08
2019-03-28T00:29:22.423Z,47.67
2019-03-28T00:32:18.091Z,50.52
2019-03-28T00:35:13.964Z,43.13
2019-03-28T00:38:09.968Z,46.98
2019-03-28T00:41:05.616Z,54.33
2019-03-28T00:44:01.116Z,43.38
2019-03-28T00:46:57.109Z,48.00
2019-03-28T00:49:52.285Z,47.73
2019-03-28T00:52:47.763Z,45.10
2019-03-28T00:55:43.162Z,40.78
2019-03-28T00:58:38.949Z,48.83
2019-03-28T01:01:34.626Z,46.37
2019-03-28T01:04:30.235Z,42.73
2019-03-28T01:07:25.967Z,43.28
2019-03-28T01:10:21.266Z,45.60
2019-03-28T01:13:16.864Z,43.23
2019-03-28T01:16:13.211Z,41.45
2019-03-28T01:19:08.731Z,46.60
2019-03-28T01:22:04.507Z,44.75
2019-03-28T01:25:01.643Z,44.55
2019-03-28T01:27:57.266Z,46.63
2019-03-28T01:30:52.607Z,58.98
2019-03-28T01:33:47.885Z,43.20
2019-03-28T01:36:43.132Z,52.43
2019-03-28T01:39:38.493Z,53.83
2019-03-28T01:42:34.393Z,60.98
2019-03-28T01:45:29.953Z,65.60
2019-03-28T01:48:25.567Z,63.13
2019-03-28T01:51:22.500Z,65.90
2019-03-28T01:54:18.224Z,57.70
2019-03-28T01:57:14.348Z,56.00
2019-03-28T02:00:10.441Z,62.38
2019-03-28T02:03:06.250Z,54.98
2019-03-28T02:06:03.101Z,52.38
2019-03-28T02:08:58.880Z,60.28
2019-03-28T02:11:54.663Z,55.63
2019-03-28T02:14:50.558Z,49.83
2019-03-28T02:17:46.563Z,54.40
2019-03-28T02:20:42.078Z,59.95
2019-03-28T02:23:37.675Z,64.40
2019-03-28T02:26:34.267Z,52.35
2019-03-28T02:29:30.140Z,53.17
2019-03-28T02:32:25.757Z,55.17
2019-03-28T02:35:22.165Z,58.00
2019-03-28T02:38:17.686Z,51.37
2019-03-28T02:41:13.527Z,48.52
2019-03-28T02:44:09.555Z,60.38
2019-03-28T02:47:05.581Z,58.87
2019-03-28T02:50:01.167Z,53.83
2019-03-28T02:52:57.182Z,55.48
2019-03-28T02:55:53.347Z,54.85
2019-03-28T02:58:49.113Z,51.45
2019-03-28T03:01:45.004Z,52.48
2019-03-28T03:04:41.021Z,57.73
2019-03-28T03:07:36.755Z,44.27
2019-03-28T03:10:32.333Z,50.50
2019-03-28T03:13:28.590Z,51.77
2019-03-28T03:16:24.363Z,45.70
2019-03-28T03:19:20.147Z,51.68
2019-03-28T03:22:16.733Z,49.98
2019-03-28T03:25:13.001Z,48.73
2019-03-28T03:28:08.943Z,46.92
2019-03-28T03:31:06.250Z,52.23
2019-03-28T03:34:01.980Z,40.85
2019-03-28T03:36:57.710Z,49.42
2019-03-28T03:39:53.224Z,43.95
2019-03-28T03:42:49.079Z,50.58
2019-03-28T03:45:44.885Z,47.50
2019-03-28T03:48:40.502Z,47.58
2019-03-28T03:51:36.470Z,44.05
2019-03-28T03:54:32.440Z,43.48
2019-03-28T03:57:28.093Z,41.58
2019-03-28T04:00:29.646Z,44.77
2019-03-28T04:03:25.197Z,38.92
2019-03-28T04:06:21.055Z,42.62
2019-03-28T04:09:16.950Z,45.55
2019-03-28T04:12:13.469Z,75.85
2019-03-28T04:15:08.987Z,62.20
2019-03-28T04:18:04.404Z,56.10
2019-03-28T04:21:00.800Z,48.73
2019-03-28T04:23:57.239Z,46.37
2019-03-28T04:26:52.939Z,49.25
2019-03-28T04:29:48.833Z,36.85
2019-03-28T04:32:44.534Z,35.33
2019-03-28T04:35:40.184Z,42.85
2019-03-28T04:38:37.973Z,35.43
2019-03-28T04:41:35.437Z,42.10
2019-03-28T04:44:31.244Z,35.03
2019-03-28T04:47:27.184Z,38.02
2019-03-28T04:50:22.848Z,34.90
2019-03-28T04:53:18.237Z,35.30
2019-03-28T04:56:17.258Z,33.20
2019-03-28T04:59:15.367Z,25.97
2019-03-28T05:02:17.115Z,29.27
2019-03-28T05:05:13.103Z,28.95
2019-03-28T05:08:10.506Z,40.20
2019-03-28T05:11:09.183Z,36.15
2019-03-28T05:14:05.701Z,39.03
2019-03-28T05:17:04.644Z,37.48
2019-03-28T05:20:13.449Z,45.52
2019-03-28T05:23:12.376Z,37.45
2019-03-28T05:26:13.949Z,44.83
2019-03-28T05:34:10.326Z,40.28
2019-03-28T05:38:12.364Z,40.83
2019-03-28T05:46:21.820Z,50.40
2019-03-28T05:49:47.745Z,41.28
2019-03-28T05:56:25.909Z,40.30
2019-03-28T05:59:30.852Z,30.92
2019-03-28T06:02:30.407Z,30.30
2019-03-28T06:05:31.695Z,34.95
2019-03-28T06:08:32.300Z,30.23
2019-03-28T06:12:01.179Z,25.60
2019-03-28T06:15:07.058Z,25.60
2019-03-28T06:22:47.080Z,26.97
2019-03-28T06:25:51.379Z,19.25
2019-03-28T06:28:51.835Z,19.45
2019-03-28T06:31:56.704Z,21.37
2019-03-28T06:34:57.613Z,19.10
2019-03-28T06:37:59.391Z,22.02
2019-03-28T06:41:06.955Z,22.07
2019-03-28T06:47:35.772Z,21.05
2019-03-28T06:50:33.082Z,22.27
2019-03-28T06:53:31.967Z,22.32
2019-03-28T06:56:28.360Z,22.10
2019-03-28T06:59:36.254Z,21.05
2019-03-28T07:02:23.420Z,21.33
2019-03-28T07:05:20.643Z,22.00
2019-03-28T07:08:37.270Z,18.65
2019-03-28T07:11:35.691Z,24.77
2019-03-28T07:14:55.229Z,25.97
2019-03-28T07:17:51.686Z,27.40
2019-03-28T07:20:48.309Z,30.40
2019-03-28T07:24:03.448Z,23.67
2019-03-28T07:27:20.856Z,19.47
2019-03-28T07:30:41.858Z,21.70
2019-03-28T07:33:40.779Z,26.27
2019-03-28T07:36:38.881Z,23.50
2019-03-28T07:39:36.667Z,33.98
2019-03-28T07:42:33.893Z,30.87
2019-03-28T07:46:07.029Z,26.90
2019-03-28T07:49:09.105Z,22.63
2019-03-28T07:52:06.164Z,29.33
2019-03-28T07:55:03.170Z,39.83
2019-03-28T07:58:09.183Z,30.00
2019-03-28T08:02:08.711Z,32.47
2019-03-28T08:05:25.478Z,34.97
2019-03-28T08:08:38.055Z,36.15
2019-03-28T08:12:24.622Z,24.60
2019-03-28T08:15:17.648Z,28.93
2019-03-28T08:18:29.859Z,21.30
2019-03-28T08:21:32.669Z,26.53
2019-03-28T08:24:38.577Z,24.37
2019-03-28T08:27:36.054Z,32.13
2019-03-28T08:30:45.457Z,32.53
2019-03-28T08:33:46.197Z,27.80
2019-03-28T08:36:42.524Z,30.83
2019-03-28T08:39:39.307Z,29.37
2019-03-28T08:42:37.333Z,21.35
2019-03-28T08:45:34.360Z,26.30
2019-03-28T08:48:30.785Z,28.33
2019-03-28T08:51:27.461Z,24.87
2019-03-28T08:54:23.821Z,36.95
2019-03-28T08:57:21.056Z,28.70
2019-03-28T09:00:17.382Z,36.25
2019-03-28T09:03:35.505Z,30.63
2019-03-28T09:07:01.906Z,31.33
2019-03-28T09:10:07.025Z,29.60
2019-03-28T09:13:08.439Z,20.50
2019-03-28T09:16:13.446Z,29.82
2019-03-28T09:19:17.775Z,29.60
2019-03-28T09:22:22.163Z,23.60
2019-03-28T09:25:24.675Z,25.20
2019-03-28T09:28:28.334Z,22.60
2019-03-28T09:31:28.679Z,24.57
2019-03-28T09:34:30.318Z,20.90
2019-03-28T09:37:29.802Z,19.53
2019-03-28T09:40:32.926Z,19.07
2019-03-28T09:43:32.569Z,14.90
2019-03-28T09:46:32.628Z,17.50
2019-03-28T09:49:34.099Z,22.53
2019-03-28T09:52:35.248Z,21.47
2019-03-28T09:55:36.455Z,15.08
2019-03-28T09:58:37.994Z,16.43
2019-03-28T10:01:49.888Z,15.50
2019-03-28T10:05:07.403Z,13.23
2019-03-28T10:08:42.494Z,16.57
2019-03-28T10:23:29.170Z,30.47
2019-03-28T10:27:40.639Z,24.80
2019-03-28T10:30:42.370Z,33.40
2019-03-28T10:33:40.482Z,29.33
2019-03-28T10:36:39.166Z,100.50
2019-03-28T10:39:38.849Z,41.80
2019-03-28T10:42:38.184Z,70.50
2019-03-28T10:46:05.250Z,43.63
2019-03-28T10:49:09.168Z,34.80
2019-03-28T10:56:50.563Z,42.03
2019-03-28T11:03:00.728Z,27.58
2019-03-28T11:09:42.043Z,29.12
2019-03-28T11:12:49.504Z,27.55
2019-03-28T11:15:45.696Z,19.07
2019-03-28T11:18:46.990Z,17.75
2019-03-28T11:22:12.539Z,16.57
2019-03-28T11:26:04.969Z,20.30
2019-03-28T11:34:32.262Z,25.02
2019-03-28T11:42:03.758Z,15.32
2019-03-28T11:46:13.900Z,32.07
2019-03-28T11:59:04.504Z,28.00
2019-03-28T12:02:19.048Z,32.53
2019-03-28T12:05:05.638Z,31.52
2019-03-28T12:08:08.139Z,30.87
2019-03-28T12:11:05.541Z,34.20
2019-03-28T12:14:01.371Z,21.73
2019-03-28T12:16:59.210Z,28.20
2019-03-28T12:19:56.237Z,33.58
2019-03-28T12:22:51.858Z,28.00
2019-03-28T12:25:47.486Z,31.30
2019-03-28T12:28:43.383Z,32.55
2019-03-28T12:31:39.734Z,33.15
2019-03-28T12:34:35.298Z,29.32
2019-03-28T12:37:30.999Z,26.35
2019-03-28T12:40:30.032Z,36.13
2019-03-28T12:43:26.085Z,41.65
2019-03-28T12:46:25.554Z,38.88
2019-03-28T12:49:21.227Z,46.90
2019-03-28T12:52:17.347Z,44.73
2019-03-28T12:55:13.544Z,48.17
2019-03-28T12:58:11.446Z,41.92
2019-03-28T13:01:08.958Z,35.52
2019-03-28T13:04:04.911Z,38.33
2019-03-28T13:07:01.175Z,26.27
2019-03-28T13:09:58.147Z,31.23
2019-03-28T13:12:54.428Z,32.50
2019-03-28T13:15:50.289Z,31.90
2019-03-28T13:19:16.144Z,24.92
2019-03-28T13:42:27.662Z,83.67
2019-03-28T13:46:32.632Z,86.35
2019-03-28T13:50:03.913Z,91.30
2019-03-28T13:53:53.801Z,91.28
2019-03-28T13:57:15.521Z,95.65
2019-03-28T14:00:10.510Z,91.20
2019-03-28T14:03:22.403Z,107.35
2019-03-28T14:06:18.241Z,94.85
2019-03-28T14:09:14.912Z,93.03
2019-03-28T14:12:11.935Z,101.20
2019-03-28T14:15:10.163Z,81.57
2019-03-28T14:18:07.504Z,77.72
2019-03-28T14:21:03.218Z,78.80
2019-03-28T14:23:59.085Z,82.90
2019-03-28T14:26:55.890Z,80.87
2019-03-28T14:29:55.848Z,88.50
2019-03-28T14:33:10.666Z,84.20
2019-03-28T14:35:57.902Z,74.45
2019-03-28T14:38:53.482Z,74.55
2019-03-28T14:41:53.398Z,76.77
2019-03-28T14:44:49.991Z,67.95
2019-03-28T14:47:54.054Z,76.90
2019-03-28T14:51:04.599Z,76.65
2019-03-28T14:54:04.155Z,78.33
2019-03-28T14:57:03.848Z,75.62
2019-03-28T15:00:07.397Z,69.75
2019-03-28T15:03:03.862Z,71.15
2019-03-28T15:06:00.867Z,68.90
2019-03-28T15:08:57.028Z,66.60
2019-03-28T15:11:55.884Z,86.02
2019-03-28T15:14:53.855Z,75.97
2019-03-28T15:17:54.522Z,79.25
2019-03-28T15:20:55.142Z,66.80
2019-03-28T15:23:53.258Z,74.07
2019-03-28T15:26:50.894Z,67.47
2019-03-28T15:29:48.856Z,66.67
2019-03-28T15:32:45.131Z,70.78
2019-03-28T15:35:42.014Z,69.30
2019-03-28T15:38:38.478Z,58.05
2019-03-28T15:41:35.916Z,80.15
2019-03-28T15:44:32.178Z,62.40
2019-03-28T15:47:29.693Z,59.00
2019-03-28T15:50:25.729Z,66.17
2019-03-28T15:53:25.374Z,60.03
2019-03-28T15:56:21.154Z,62.20
2019-03-28T15:59:17.296Z,58.20
2019-03-28T16:02:13.774Z,57.90
2019-03-28T16:05:11.294Z,54.77
2019-03-28T16:08:11.172Z,56.13
2019-03-28T16:11:10.034Z,64.45
2019-03-28T16:14:10.055Z,53.23
2019-03-28T16:17:12.570Z,54.20
2019-03-28T16:20:10.294Z,64.00
2019-03-28T16:23:06.429Z,57.38
2019-03-28T16:26:07.693Z,57.88
2019-03-28T16:29:03.870Z,54.98
2019-03-28T16:32:01.511Z,52.50
2019-03-28T16:35:01.398Z,56.15
2019-03-28T16:38:21.999Z,53.78
2019-03-28T16:41:50.161Z,62.40
2019-03-28T16:44:51.941Z,57.05
2019-03-28T16:47:57.544Z,54.63
2019-03-28T16:51:07.435Z,59.08
2019-03-28T16:54:21.625Z,51.33
2019-03-28T16:57:21.730Z,48.85
2019-03-28T17:00:28.286Z,48.38
2019-03-28T17:04:20.720Z,48.68
2019-03-28T17:07:19.975Z,46.68
2019-03-28T17:10:57.509Z,49.93
2019-03-28T17:18:35.652Z,49.20
2019-03-28T17:22:09.399Z,53.10
2019-03-28T17:25:15.054Z,49.20
2019-03-28T17:28:50.706Z,46.10
2019-03-28T17:32:37.204Z,49.05
2019-03-28T17:35:33.384Z,48.70
2019-03-28T17:38:31.644Z,51.58
2019-03-28T17:42:15.406Z,48.20
2019-03-28T18:14:44.996Z,35.10
2019-03-28T18:18:02.205Z,33.30
2019-03-28T18:26:21.911Z,29.32
